sensor_id;sensor_type;location;lat;lon;timestamp;temperature;humidity
21712;DHT22;11017;53.552;9.910;2023-05-10T00:00:24;15.10;83.50
21712;DHT22;11017;53.552;9.910;2023-05-10T00:02:51;15.10;83.80
21712;DHT22;11017;53.552;9.910;2023-05-10T00:05:19;15.20;84.20
21712;DHT22;11017;53.552;9.910;2023-05-10T00:07:46;15.00;84.70
21712;DHT22;11017;53.552;9.910;2023-05-10T00:10:13;15.00;85.20
21712;DHT22;11017;53.552;9.910;2023-05-10T00:12:40;15.00;85.50
21712;DHT22;11017;53.552;9.910;2023-05-10T00:15:08;15.00;85.60
21712;DHT22;11017;53.552;9.910;2023-05-10T00:17:35;14.90;86.00
21712;DHT22;11017;53.552;9.910;2023-05-10T00:20:02;15.00;87.10
21712;DHT22;11017;53.552;9.910;2023-05-10T00:22:31;15.00;86.60
21712;DHT22;11017;53.552;9.910;2023-05-10T00:24:58;14.90;87.00
21712;DHT22;11017;53.552;9.910;2023-05-10T00:27:25;14.90;87.40
21712;DHT22;11017;53.552;9.910;2023-05-10T00:29:52;14.80;88.00
21712;DHT22;11017;53.552;9.910;2023-05-10T00:32:19;14.80;88.40
21712;DHT22;11017;53.552;9.910;2023-05-10T00:34:46;14.70;89.20
21712;DHT22;11017;53.552;9.910;2023-05-10T00:37:13;14.80;89.40
21712;DHT22;11017;53.552;9.910;2023-05-10T00:39:41;14.70;89.90
21712;DHT22;11017;53.552;9.910;2023-05-10T00:42:08;14.70;90.00
21712;DHT22;11017;53.552;9.910;2023-05-10T00:44:35;14.70;90.20
21712;DHT22;11017;53.552;9.910;2023-05-10T00:47:02;14.70;90.40
21712;DHT22;11017;53.552;9.910;2023-05-10T00:49:29;14.70;90.60
21712;DHT22;11017;53.552;9.910;2023-05-10T00:51:56;14.70;90.80
21712;DHT22;11017;53.552;9.910;2023-05-10T00:54:23;14.70;90.90
21712;DHT22;11017;53.552;9.910;2023-05-10T00:56:52;14.80;91.00
21712;DHT22;11017;53.552;9.910;2023-05-10T00:59:20;14.70;91.10
21712;DHT22;11017;53.552;9.910;2023-05-10T01:01:47;14.70;91.30
21712;DHT22;11017;53.552;9.910;2023-05-10T01:04:14;14.60;91.50
21712;DHT22;11017;53.552;9.910;2023-05-10T01:06:42;14.50;91.90
21712;DHT22;11017;53.552;9.910;2023-05-10T01:09:09;14.50;92.20
21712;DHT22;11017;53.552;9.910;2023-05-10T01:11:38;14.40;92.60
21712;DHT22;11017;53.552;9.910;2023-05-10T01:14:06;14.40;93.10
21712;DHT22;11017;53.552;9.910;2023-05-10T01:16:37;14.40;93.50
21712;DHT22;11017;53.552;9.910;2023-05-10T01:19:05;14.30;93.80
21712;DHT22;11017;53.552;9.910;2023-05-10T01:21:41;14.30;94.20
21712;DHT22;11017;53.552;9.910;2023-05-10T01:24:37;14.30;94.50
21712;DHT22;11017;53.552;9.910;2023-05-10T01:27:25;14.20;95.00
21712;DHT22;11017;53.552;9.910;2023-05-10T01:33:11;14.30;95.60
21712;DHT22;11017;53.552;9.910;2023-05-10T01:35:45;14.20;95.90
21712;DHT22;11017;53.552;9.910;2023-05-10T01:38:18;14.20;96.40
21712;DHT22;11017;53.552;9.910;2023-05-10T01:40:54;14.10;97.30
21712;DHT22;11017;53.552;9.910;2023-05-10T01:43:28;14.10;97.90
21712;DHT22;11017;53.552;9.910;2023-05-10T01:46:00;14.00;98.50
21712;DHT22;11017;53.552;9.910;2023-05-10T01:48:37;13.80;99.30
21712;DHT22;11017;53.552;9.910;2023-05-10T01:51:05;14.00;99.60
21712;DHT22;11017;53.552;9.910;2023-05-10T01:53:34;14.00;99.70
21712;DHT22;11017;53.552;9.910;2023-05-10T01:56:03;14.00;99.70
21712;DHT22;11017;53.552;9.910;2023-05-10T01:58:32;13.90;99.90
21712;DHT22;11017;53.552;9.910;2023-05-10T02:01:02;13.90;99.90
21712;DHT22;11017;53.552;9.910;2023-05-10T02:03:31;13.90;99.90
21712;DHT22;11017;53.552;9.910;2023-05-10T02:06:00;14.00;99.90
21712;DHT22;11017;53.552;9.910;2023-05-10T02:08:28;13.90;99.90
21712;DHT22;11017;53.552;9.910;2023-05-10T02:10:56;13.90;99.90
21712;DHT22;11017;53.552;9.910;2023-05-10T02:13:24;13.90;99.90
21712;DHT22;11017;53.552;9.910;2023-05-10T02:15:53;13.90;99.90
21712;DHT22;11017;53.552;9.910;2023-05-10T02:18:23;13.90;99.90
21712;DHT22;11017;53.552;9.910;2023-05-10T02:20:51;14.00;99.90
21712;DHT22;11017;53.552;9.910;2023-05-10T02:23:20;13.90;99.90
21712;DHT22;11017;53.552;9.910;2023-05-10T02:25:48;13.90;99.90
21712;DHT22;11017;53.552;9.910;2023-05-10T02:28:17;13.80;99.90
21712;DHT22;11017;53.552;9.910;2023-05-10T02:30:44;13.80;99.90
21712;DHT22;11017;53.552;9.910;2023-05-10T02:33:12;13.80;99.90
21712;DHT22;11017;53.552;9.910;2023-05-10T02:35:40;13.80;99.90
21712;DHT22;11017;53.552;9.910;2023-05-10T02:38:08;13.60;99.90
21712;DHT22;11017;53.552;9.910;2023-05-10T02:40:40;13.60;99.90
21712;DHT22;11017;53.552;9.910;2023-05-10T02:43:10;13.50;99.90
21712;DHT22;11017;53.552;9.910;2023-05-10T02:45:38;13.40;99.90
21712;DHT22;11017;53.552;9.910;2023-05-10T02:48:06;13.50;99.90
21712;DHT22;11017;53.552;9.910;2023-05-10T02:50:34;13.50;99.90
21712;DHT22;11017;53.552;9.910;2023-05-10T02:53:14;13.50;99.90
21712;DHT22;11017;53.552;9.910;2023-05-10T02:55:45;13.50;99.90
21712;DHT22;11017;53.552;9.910;2023-05-10T02:58:15;13.50;99.90
21712;DHT22;11017;53.552;9.910;2023-05-10T03:00:44;13.60;99.90
21712;DHT22;11017;53.552;9.910;2023-05-10T03:03:11;13.40;99.90
21712;DHT22;11017;53.552;9.910;2023-05-10T03:05:38;13.30;99.90
21712;DHT22;11017;53.552;9.910;2023-05-10T03:08:05;13.40;99.90
21712;DHT22;11017;53.552;9.910;2023-05-10T03:10:35;13.50;99.90
21712;DHT22;11017;53.552;9.910;2023-05-10T03:13:15;13.40;99.90
21712;DHT22;11017;53.552;9.910;2023-05-10T03:15:50;13.60;99.90
21712;DHT22;11017;53.552;9.910;2023-05-10T03:18:22;13.50;99.90
21712;DHT22;11017;53.552;9.910;2023-05-10T03:20:51;13.50;99.90
21712;DHT22;11017;53.552;9.910;2023-05-10T03:23:24;13.50;99.90
21712;DHT22;11017;53.552;9.910;2023-05-10T03:25:53;13.50;99.90
21712;DHT22;11017;53.552;9.910;2023-05-10T03:28:25;13.40;99.90
21712;DHT22;11017;53.552;9.910;2023-05-10T03:30:53;13.30;99.90
21712;DHT22;11017;53.552;9.910;2023-05-10T03:33:20;13.30;99.90
21712;DHT22;11017;53.552;9.910;2023-05-10T03:35:47;13.30;99.90
21712;DHT22;11017;53.552;9.910;2023-05-10T03:38:14;13.30;99.90
21712;DHT22;11017;53.552;9.910;2023-05-10T03:40:41;13.20;99.90
21712;DHT22;11017;53.552;9.910;2023-05-10T03:43:08;13.20;99.90
21712;DHT22;11017;53.552;9.910;2023-05-10T03:45:36;13.20;99.90
21712;DHT22;11017;53.552;9.910;2023-05-10T03:48:03;13.30;99.90
21712;DHT22;11017;53.552;9.910;2023-05-10T03:50:30;13.30;99.90
21712;DHT22;11017;53.552;9.910;2023-05-10T03:52:57;13.30;99.90
21712;DHT22;11017;53.552;9.910;2023-05-10T03:55:24;13.30;99.90
21712;DHT22;11017;53.552;9.910;2023-05-10T03:57:51;13.30;99.90
21712;DHT22;11017;53.552;9.910;2023-05-10T04:00:19;13.20;99.90
21712;DHT22;11017;53.552;9.910;2023-05-10T04:02:48;13.30;99.90
21712;DHT22;11017;53.552;9.910;2023-05-10T04:05:15;13.30;99.90
21712;DHT22;11017;53.552;9.910;2023-05-10T04:07:41;13.20;99.90
21712;DHT22;11017;53.552;9.910;2023-05-10T04:10:10;13.20;99.90
21712;DHT22;11017;53.552;9.910;2023-05-10T04:12:37;13.30;99.90
21712;DHT22;11017;53.552;9.910;2023-05-10T04:15:04;13.30;99.90
21712;DHT22;11017;53.552;9.910;2023-05-10T04:17:32;13.20;99.90
21712;DHT22;11017;53.552;9.910;2023-05-10T04:20:00;13.20;99.90
21712;DHT22;11017;53.552;9.910;2023-05-10T04:22:27;13.20;99.90
21712;DHT22;11017;53.552;9.910;2023-05-10T04:24:54;13.20;99.90
21712;DHT22;11017;53.552;9.910;2023-05-10T04:27:21;13.10;99.90
21712;DHT22;11017;53.552;9.910;2023-05-10T04:29:48;13.10;99.90
21712;DHT22;11017;53.552;9.910;2023-05-10T04:32:16;13.10;99.90
21712;DHT22;11017;53.552;9.910;2023-05-10T04:34:43;13.20;99.90
21712;DHT22;11017;53.552;9.910;2023-05-10T04:37:11;13.50;99.90
21712;DHT22;11017;53.552;9.910;2023-05-10T04:39:38;13.40;99.90
21712;DHT22;11017;53.552;9.910;2023-05-10T04:42:05;13.20;99.90
21712;DHT22;11017;53.552;9.910;2023-05-10T04:44:32;13.20;99.90
21712;DHT22;11017;53.552;9.910;2023-05-10T04:46:59;13.20;99.90
21712;DHT22;11017;53.552;9.910;2023-05-10T04:49:27;13.20;99.90
21712;DHT22;11017;53.552;9.910;2023-05-10T04:51:55;13.40;99.90
21712;DHT22;11017;53.552;9.910;2023-05-10T04:54:23;13.30;99.90
21712;DHT22;11017;53.552;9.910;2023-05-10T04:56:50;13.30;99.90
21712;DHT22;11017;53.552;9.910;2023-05-10T04:59:17;13.30;99.90
21712;DHT22;11017;53.552;9.910;2023-05-10T05:01:49;13.30;99.90
21712;DHT22;11017;53.552;9.910;2023-05-10T05:04:19;13.30;99.90
21712;DHT22;11017;53.552;9.910;2023-05-10T05:06:47;13.30;99.90
21712;DHT22;11017;53.552;9.910;2023-05-10T05:09:21;13.30;99.90
21712;DHT22;11017;53.552;9.910;2023-05-10T05:11:49;13.50;99.90
21712;DHT22;11017;53.552;9.910;2023-05-10T05:14:19;13.50;99.90
21712;DHT22;11017;53.552;9.910;2023-05-10T05:16:53;13.50;99.90
21712;DHT22;11017;53.552;9.910;2023-05-10T05:19:22;13.60;99.90
21712;DHT22;11017;53.552;9.910;2023-05-10T05:21:49;13.60;99.90
21712;DHT22;11017;53.552;9.910;2023-05-10T05:24:16;13.50;99.90
21712;DHT22;11017;53.552;9.910;2023-05-10T05:26:43;13.50;99.90
21712;DHT22;11017;53.552;9.910;2023-05-10T05:29:11;13.60;99.90
21712;DHT22;11017;53.552;9.910;2023-05-10T05:31:38;13.50;99.90
21712;DHT22;11017;53.552;9.910;2023-05-10T05:34:05;13.70;99.90
21712;DHT22;11017;53.552;9.910;2023-05-10T05:36:35;13.70;99.90
21712;DHT22;11017;53.552;9.910;2023-05-10T05:39:03;13.80;99.90
21712;DHT22;11017;53.552;9.910;2023-05-10T05:41:30;13.90;99.90
21712;DHT22;11017;53.552;9.910;2023-05-10T05:43:57;13.90;99.90
21712;DHT22;11017;53.552;9.910;2023-05-10T05:46:25;13.90;99.90
21712;DHT22;11017;53.552;9.910;2023-05-10T05:48:52;14.10;99.90
21712;DHT22;11017;53.552;9.910;2023-05-10T05:51:19;14.00;99.90
21712;DHT22;11017;53.552;9.910;2023-05-10T05:53:46;14.10;99.90
21712;DHT22;11017;53.552;9.910;2023-05-10T05:56:13;14.10;99.90
21712;DHT22;11017;53.552;9.910;2023-05-10T05:58:40;14.10;99.90
21712;DHT22;11017;53.552;9.910;2023-05-10T06:01:07;14.30;99.90
21712;DHT22;11017;53.552;9.910;2023-05-10T06:03:35;14.30;99.90
21712;DHT22;11017;53.552;9.910;2023-05-10T06:06:02;14.60;99.90
21712;DHT22;11017;53.552;9.910;2023-05-10T06:08:29;14.80;99.90
21712;DHT22;11017;53.552;9.910;2023-05-10T06:10:56;14.90;99.90
21712;DHT22;11017;53.552;9.910;2023-05-10T06:13:23;14.90;99.90
21712;DHT22;11017;53.552;9.910;2023-05-10T06:15:50;15.00;99.90
21712;DHT22;11017;53.552;9.910;2023-05-10T06:18:17;15.00;99.90
21712;DHT22;11017;53.552;9.910;2023-05-10T06:20:45;15.20;99.90
21712;DHT22;11017;53.552;9.910;2023-05-10T06:23:12;15.20;99.90
21712;DHT22;11017;53.552;9.910;2023-05-10T06:25:39;15.20;99.90
21712;DHT22;11017;53.552;9.910;2023-05-10T06:28:08;15.30;99.90
21712;DHT22;11017;53.552;9.910;2023-05-10T06:30:36;15.50;99.90
21712;DHT22;11017;53.552;9.910;2023-05-10T06:33:03;15.60;99.90
21712;DHT22;11017;53.552;9.910;2023-05-10T06:35:30;15.60;99.90
21712;DHT22;11017;53.552;9.910;2023-05-10T06:38:00;15.50;99.90
21712;DHT22;11017;53.552;9.910;2023-05-10T06:40:27;15.70;99.90
21712;DHT22;11017;53.552;9.910;2023-05-10T06:42:53;15.90;99.90
21712;DHT22;11017;53.552;9.910;2023-05-10T06:45:20;16.30;99.90
21712;DHT22;11017;53.552;9.910;2023-05-10T06:47:47;16.10;99.90
21712;DHT22;11017;53.552;9.910;2023-05-10T06:50:14;15.90;99.90
21712;DHT22;11017;53.552;9.910;2023-05-10T06:52:41;15.90;99.90
21712;DHT22;11017;53.552;9.910;2023-05-10T06:55:10;16.20;99.90
21712;DHT22;11017;53.552;9.910;2023-05-10T06:57:36;16.30;99.90
21712;DHT22;11017;53.552;9.910;2023-05-10T07:00:04;16.60;99.90
21712;DHT22;11017;53.552;9.910;2023-05-10T07:02:32;16.80;99.90
21712;DHT22;11017;53.552;9.910;2023-05-10T07:04:59;17.00;99.90
21712;DHT22;11017;53.552;9.910;2023-05-10T07:07:25;16.90;99.90
21712;DHT22;11017;53.552;9.910;2023-05-10T07:09:52;17.00;99.90
21712;DHT22;11017;53.552;9.910;2023-05-10T07:12:20;17.00;99.90
21712;DHT22;11017;53.552;9.910;2023-05-10T07:14:47;17.00;99.90
21712;DHT22;11017;53.552;9.910;2023-05-10T07:17:14;17.20;99.90
21712;DHT22;11017;53.552;9.910;2023-05-10T07:19:41;17.20;99.90
21712;DHT22;11017;53.552;9.910;2023-05-10T07:22:08;17.20;99.90
21712;DHT22;11017;53.552;9.910;2023-05-10T07:24:35;17.10;99.90
21712;DHT22;11017;53.552;9.910;2023-05-10T07:27:03;17.40;99.90
21712;DHT22;11017;53.552;9.910;2023-05-10T07:29:31;17.30;99.90
21712;DHT22;11017;53.552;9.910;2023-05-10T07:31:58;17.60;99.90
21712;DHT22;11017;53.552;9.910;2023-05-10T07:34:25;17.70;99.90
21712;DHT22;11017;53.552;9.910;2023-05-10T07:36:52;17.80;99.90
21712;DHT22;11017;53.552;9.910;2023-05-10T07:39:18;17.80;99.90
21712;DHT22;11017;53.552;9.910;2023-05-10T07:41:46;17.60;99.90
21712;DHT22;11017;53.552;9.910;2023-05-10T07:44:12;17.70;99.90
21712;DHT22;11017;53.552;9.910;2023-05-10T07:46:41;18.10;99.90
21712;DHT22;11017;53.552;9.910;2023-05-10T07:49:08;18.10;99.90
21712;DHT22;11017;53.552;9.910;2023-05-10T07:51:35;18.30;99.90
21712;DHT22;11017;53.552;9.910;2023-05-10T07:54:02;18.10;99.90
21712;DHT22;11017;53.552;9.910;2023-05-10T07:56:30;18.00;99.90
21712;DHT22;11017;53.552;9.910;2023-05-10T07:58:58;17.60;99.90
21712;DHT22;11017;53.552;9.910;2023-05-10T08:01:26;17.80;99.90
21712;DHT22;11017;53.552;9.910;2023-05-10T08:03:54;18.20;99.90
21712;DHT22;11017;53.552;9.910;2023-05-10T08:06:21;18.10;99.90
21712;DHT22;11017;53.552;9.910;2023-05-10T08:08:49;18.00;99.90
21712;DHT22;11017;53.552;9.910;2023-05-10T08:11:16;18.30;99.90
21712;DHT22;11017;53.552;9.910;2023-05-10T08:13:43;18.50;99.90
21712;DHT22;11017;53.552;9.910;2023-05-10T08:16:10;18.60;99.90
21712;DHT22;11017;53.552;9.910;2023-05-10T08:18:37;18.50;99.90
21712;DHT22;11017;53.552;9.910;2023-05-10T08:21:06;18.70;99.90
21712;DHT22;11017;53.552;9.910;2023-05-10T08:23:33;18.70;99.90
21712;DHT22;11017;53.552;9.910;2023-05-10T08:26:00;18.80;99.90
21712;DHT22;11017;53.552;9.910;2023-05-10T08:28:26;19.00;99.90
21712;DHT22;11017;53.552;9.910;2023-05-10T08:30:53;18.90;99.90
21712;DHT22;11017;53.552;9.910;2023-05-10T08:33:20;19.20;99.90
21712;DHT22;11017;53.552;9.910;2023-05-10T08:35:47;19.00;99.90
21712;DHT22;11017;53.552;9.910;2023-05-10T08:38:15;19.10;99.90
21712;DHT22;11017;53.552;9.910;2023-05-10T08:40:44;19.30;99.90
21712;DHT22;11017;53.552;9.910;2023-05-10T08:43:12;18.90;99.90
21712;DHT22;11017;53.552;9.910;2023-05-10T08:45:41;18.80;99.90
21712;DHT22;11017;53.552;9.910;2023-05-10T08:48:09;19.20;99.90
21712;DHT22;11017;53.552;9.910;2023-05-10T08:50:38;19.30;99.90
21712;DHT22;11017;53.552;9.910;2023-05-10T08:53:10;19.30;99.90
21712;DHT22;11017;53.552;9.910;2023-05-10T08:55:39;19.40;99.90
21712;DHT22;11017;53.552;9.910;2023-05-10T08:58:08;19.10;99.90
21712;DHT22;11017;53.552;9.910;2023-05-10T09:00:35;18.90;99.90
21712;DHT22;11017;53.552;9.910;2023-05-10T09:03:04;18.20;99.90
21712;DHT22;11017;53.552;9.910;2023-05-10T09:05:31;18.00;99.90
21712;DHT22;11017;53.552;9.910;2023-05-10T09:07:58;18.20;99.90
21712;DHT22;11017;53.552;9.910;2023-05-10T09:10:26;18.30;99.90
21712;DHT22;11017;53.552;9.910;2023-05-10T09:12:56;18.40;99.90
21712;DHT22;11017;53.552;9.910;2023-05-10T09:15:23;18.60;99.90
21712;DHT22;11017;53.552;9.910;2023-05-10T09:17:50;18.70;99.90
21712;DHT22;11017;53.552;9.910;2023-05-10T09:20:17;18.50;99.90
21712;DHT22;11017;53.552;9.910;2023-05-10T09:22:44;18.50;99.90
21712;DHT22;11017;53.552;9.910;2023-05-10T09:25:13;18.40;99.90
21712;DHT22;11017;53.552;9.910;2023-05-10T09:27:41;18.60;99.90
21712;DHT22;11017;53.552;9.910;2023-05-10T09:30:10;18.30;99.90
21712;DHT22;11017;53.552;9.910;2023-05-10T09:32:38;18.00;99.90
21712;DHT22;11017;53.552;9.910;2023-05-10T09:35:09;18.00;99.90
21712;DHT22;11017;53.552;9.910;2023-05-10T09:37:38;17.90;99.90
21712;DHT22;11017;53.552;9.910;2023-05-10T09:40:08;17.60;99.90
21712;DHT22;11017;53.552;9.910;2023-05-10T09:42:37;16.90;99.90
21712;DHT22;11017;53.552;9.910;2023-05-10T09:45:05;17.30;99.90
21712;DHT22;11017;53.552;9.910;2023-05-10T09:47:35;17.10;99.90
21712;DHT22;11017;53.552;9.910;2023-05-10T09:50:03;17.20;99.90
21712;DHT22;11017;53.552;9.910;2023-05-10T09:52:31;17.10;99.90
21712;DHT22;11017;53.552;9.910;2023-05-10T09:55:12;17.10;99.90
21712;DHT22;11017;53.552;9.910;2023-05-10T09:57:38;16.80;99.90
21712;DHT22;11017;53.552;9.910;2023-05-10T10:00:07;16.60;99.90
21712;DHT22;11017;53.552;9.910;2023-05-10T10:02:36;16.70;99.90
21712;DHT22;11017;53.552;9.910;2023-05-10T10:05:05;16.70;99.90
21712;DHT22;11017;53.552;9.910;2023-05-10T10:07:33;16.50;99.90
21712;DHT22;11017;53.552;9.910;2023-05-10T10:10:00;16.50;99.90
21712;DHT22;11017;53.552;9.910;2023-05-10T10:12:28;16.50;99.90
21712;DHT22;11017;53.552;9.910;2023-05-10T10:14:55;16.60;99.90
21712;DHT22;11017;53.552;9.910;2023-05-10T10:17:26;16.70;99.90
21712;DHT22;11017;53.552;9.910;2023-05-10T10:19:57;16.30;99.90
21712;DHT22;11017;53.552;9.910;2023-05-10T10:22:24;16.10;99.90
21712;DHT22;11017;53.552;9.910;2023-05-10T10:24:51;16.10;99.90
21712;DHT22;11017;53.552;9.910;2023-05-10T10:27:23;15.90;99.90
21712;DHT22;11017;53.552;9.910;2023-05-10T10:30:04;16.00;99.90
21712;DHT22;11017;53.552;9.910;2023-05-10T10:32:42;16.10;99.90
21712;DHT22;11017;53.552;9.910;2023-05-10T10:35:15;16.30;99.90
21712;DHT22;11017;53.552;9.910;2023-05-10T10:37:46;16.50;99.90
21712;DHT22;11017;53.552;9.910;2023-05-10T10:40:31;16.30;99.90
21712;DHT22;11017;53.552;9.910;2023-05-10T10:43:20;16.40;99.90
21712;DHT22;11017;53.552;9.910;2023-05-10T10:46:00;16.50;99.90
21712;DHT22;11017;53.552;9.910;2023-05-10T10:48:35;16.50;99.90
21712;DHT22;11017;53.552;9.910;2023-05-10T10:51:04;16.10;99.90
21712;DHT22;11017;53.552;9.910;2023-05-10T10:53:32;16.10;99.90
21712;DHT22;11017;53.552;9.910;2023-05-10T10:56:06;16.10;99.90
21712;DHT22;11017;53.552;9.910;2023-05-10T10:58:35;16.20;99.90
21712;DHT22;11017;53.552;9.910;2023-05-10T11:01:13;16.10;99.90
21712;DHT22;11017;53.552;9.910;2023-05-10T11:03:41;16.30;99.90
21712;DHT22;11017;53.552;9.910;2023-05-10T11:06:30;16.50;99.90
21712;DHT22;11017;53.552;9.910;2023-05-10T11:08:58;16.30;99.90
21712;DHT22;11017;53.552;9.910;2023-05-10T11:11:25;16.10;99.90
21712;DHT22;11017;53.552;9.910;2023-05-10T11:13:52;16.30;99.90
21712;DHT22;11017;53.552;9.910;2023-05-10T11:16:19;16.70;99.90
21712;DHT22;11017;53.552;9.910;2023-05-10T11:18:57;16.80;99.90
21712;DHT22;11017;53.552;9.910;2023-05-10T11:21:24;16.50;99.90
21712;DHT22;11017;53.552;9.910;2023-05-10T11:23:54;16.50;99.90
21712;DHT22;11017;53.552;9.910;2023-05-10T11:26:23;16.50;99.90
21712;DHT22;11017;53.552;9.910;2023-05-10T11:28:53;16.50;99.90
21712;DHT22;11017;53.552;9.910;2023-05-10T11:31:22;16.40;99.90
21712;DHT22;11017;53.552;9.910;2023-05-10T11:33:53;16.20;99.90
21712;DHT22;11017;53.552;9.910;2023-05-10T11:36:24;16.10;99.90
21712;DHT22;11017;53.552;9.910;2023-05-10T11:38:53;16.20;99.90
21712;DHT22;11017;53.552;9.910;2023-05-10T11:41:22;16.20;99.90
21712;DHT22;11017;53.552;9.910;2023-05-10T11:43:50;16.20;99.90
21712;DHT22;11017;53.552;9.910;2023-05-10T11:46:19;16.10;99.90
21712;DHT22;11017;53.552;9.910;2023-05-10T11:48:48;16.10;99.90
21712;DHT22;11017;53.552;9.910;2023-05-10T11:51:19;16.10;99.90
21712;DHT22;11017;53.552;9.910;2023-05-10T11:53:46;16.20;99.90
21712;DHT22;11017;53.552;9.910;2023-05-10T11:56:14;16.10;99.90
21712;DHT22;11017;53.552;9.910;2023-05-10T11:58:41;16.20;99.90
21712;DHT22;11017;53.552;9.910;2023-05-10T12:01:08;16.40;99.90
21712;DHT22;11017;53.552;9.910;2023-05-10T12:03:36;16.30;99.90
21712;DHT22;11017;53.552;9.910;2023-05-10T12:06:04;16.20;99.90
21712;DHT22;11017;53.552;9.910;2023-05-10T12:08:31;16.70;99.90
21712;DHT22;11017;53.552;9.910;2023-05-10T12:11:05;17.00;99.90
21712;DHT22;11017;53.552;9.910;2023-05-10T12:13:37;16.90;99.90
21712;DHT22;11017;53.552;9.910;2023-05-10T12:16:12;17.20;99.90
21712;DHT22;11017;53.552;9.910;2023-05-10T12:18:40;17.50;99.90
21712;DHT22;11017;53.552;9.910;2023-05-10T12:21:07;17.60;99.90
21712;DHT22;11017;53.552;9.910;2023-05-10T12:23:36;17.70;99.90
21712;DHT22;11017;53.552;9.910;2023-05-10T12:26:03;17.90;99.90
21712;DHT22;11017;53.552;9.910;2023-05-10T12:28:31;17.90;99.90
21712;DHT22;11017;53.552;9.910;2023-05-10T12:31:00;17.80;99.90
21712;DHT22;11017;53.552;9.910;2023-05-10T12:33:35;17.60;99.90
21712;DHT22;11017;53.552;9.910;2023-05-10T12:36:04;17.20;99.90
21712;DHT22;11017;53.552;9.910;2023-05-10T12:38:33;17.20;99.90
21712;DHT22;11017;53.552;9.910;2023-05-10T12:41:01;17.50;99.90
21712;DHT22;11017;53.552;9.910;2023-05-10T12:43:29;17.80;99.90
21712;DHT22;11017;53.552;9.910;2023-05-10T12:45:56;17.90;99.90
21712;DHT22;11017;53.552;9.910;2023-05-10T12:48:25;17.70;99.90
21712;DHT22;11017;53.552;9.910;2023-05-10T12:50:54;17.50;99.90
21712;DHT22;11017;53.552;9.910;2023-05-10T12:53:21;17.60;99.90
21712;DHT22;11017;53.552;9.910;2023-05-10T12:55:47;17.70;99.90
21712;DHT22;11017;53.552;9.910;2023-05-10T12:58:14;18.00;99.90
21712;DHT22;11017;53.552;9.910;2023-05-10T13:00:41;18.30;99.90
21712;DHT22;11017;53.552;9.910;2023-05-10T13:03:09;18.50;99.90
21712;DHT22;11017;53.552;9.910;2023-05-10T13:05:38;18.70;99.90
21712;DHT22;11017;53.552;9.910;2023-05-10T13:08:05;18.60;99.90
21712;DHT22;11017;53.552;9.910;2023-05-10T13:10:32;18.50;99.90
21712;DHT22;11017;53.552;9.910;2023-05-10T13:12:59;18.20;99.90
21712;DHT22;11017;53.552;9.910;2023-05-10T13:15:26;18.10;99.90
21712;DHT22;11017;53.552;9.910;2023-05-10T13:17:53;18.30;99.90
21712;DHT22;11017;53.552;9.910;2023-05-10T13:20:21;18.60;99.90
21712;DHT22;11017;53.552;9.910;2023-05-10T13:22:55;18.90;99.90
21712;DHT22;11017;53.552;9.910;2023-05-10T13:25:24;19.00;99.90
21712;DHT22;11017;53.552;9.910;2023-05-10T13:27:54;19.40;99.90
21712;DHT22;11017;53.552;9.910;2023-05-10T13:30:28;19.40;99.90
21712;DHT22;11017;53.552;9.910;2023-05-10T13:32:55;19.40;99.90
21712;DHT22;11017;53.552;9.910;2023-05-10T13:35:22;19.00;99.90
21712;DHT22;11017;53.552;9.910;2023-05-10T13:38:00;18.80;99.90
21712;DHT22;11017;53.552;9.910;2023-05-10T13:40:27;18.90;99.90
21712;DHT22;11017;53.552;9.910;2023-05-10T13:42:54;18.70;99.90
21712;DHT22;11017;53.552;9.910;2023-05-10T13:45:23;18.60;99.90
21712;DHT22;11017;53.552;9.910;2023-05-10T13:47:50;18.60;99.90
21712;DHT22;11017;53.552;9.910;2023-05-10T13:50:19;18.50;99.90
21712;DHT22;11017;53.552;9.910;2023-05-10T13:52:46;18.30;99.90
21712;DHT22;11017;53.552;9.910;2023-05-10T13:55:15;18.20;99.90
21712;DHT22;11017;53.552;9.910;2023-05-10T13:57:42;18.70;99.90
21712;DHT22;11017;53.552;9.910;2023-05-10T14:00:09;19.00;99.90
21712;DHT22;11017;53.552;9.910;2023-05-10T14:02:36;19.30;99.90
21712;DHT22;11017;53.552;9.910;2023-05-10T14:05:04;19.80;99.90
21712;DHT22;11017;53.552;9.910;2023-05-10T14:07:31;20.10;99.90
21712;DHT22;11017;53.552;9.910;2023-05-10T14:10:02;20.10;99.90
21712;DHT22;11017;53.552;9.910;2023-05-10T14:12:32;20.30;99.90
21712;DHT22;11017;53.552;9.910;2023-05-10T14:15:02;20.10;99.90
21712;DHT22;11017;53.552;9.910;2023-05-10T14:17:31;19.80;99.90
21712;DHT22;11017;53.552;9.910;2023-05-10T14:20:00;19.50;99.90
21712;DHT22;11017;53.552;9.910;2023-05-10T14:22:29;19.30;99.90
21712;DHT22;11017;53.552;9.910;2023-05-10T14:24:58;19.30;99.90
21712;DHT22;11017;53.552;9.910;2023-05-10T14:27:25;19.40;99.90
21712;DHT22;11017;53.552;9.910;2023-05-10T14:29:53;19.00;99.90
21712;DHT22;11017;53.552;9.910;2023-05-10T14:32:20;18.90;99.90
21712;DHT22;11017;53.552;9.910;2023-05-10T14:34:47;18.70;99.90
21712;DHT22;11017;53.552;9.910;2023-05-10T14:37:14;18.50;99.90
21712;DHT22;11017;53.552;9.910;2023-05-10T14:39:41;18.20;99.90
21712;DHT22;11017;53.552;9.910;2023-05-10T14:42:11;18.10;99.90
21712;DHT22;11017;53.552;9.910;2023-05-10T14:44:40;18.00;99.90
21712;DHT22;11017;53.552;9.910;2023-05-10T14:47:08;18.10;99.90
21712;DHT22;11017;53.552;9.910;2023-05-10T14:49:35;18.40;99.90
21712;DHT22;11017;53.552;9.910;2023-05-10T14:52:01;18.60;99.90
21712;DHT22;11017;53.552;9.910;2023-05-10T14:54:30;18.60;99.90
21712;DHT22;11017;53.552;9.910;2023-05-10T14:56:58;18.40;99.90
21712;DHT22;11017;53.552;9.910;2023-05-10T14:59:25;18.50;99.90
21712;DHT22;11017;53.552;9.910;2023-05-10T15:01:52;18.30;99.90
21712;DHT22;11017;53.552;9.910;2023-05-10T15:04:20;18.10;99.90
21712;DHT22;11017;53.552;9.910;2023-05-10T15:06:48;18.20;99.90
21712;DHT22;11017;53.552;9.910;2023-05-10T15:09:14;18.40;99.90
21712;DHT22;11017;53.552;9.910;2023-05-10T15:11:42;18.70;99.90
21712;DHT22;11017;53.552;9.910;2023-05-10T15:14:09;18.80;99.90
21712;DHT22;11017;53.552;9.910;2023-05-10T15:16:36;19.00;99.90
21712;DHT22;11017;53.552;9.910;2023-05-10T15:19:03;18.80;99.90
21712;DHT22;11017;53.552;9.910;2023-05-10T15:21:32;18.50;99.90
21712;DHT22;11017;53.552;9.910;2023-05-10T15:24:04;18.40;99.90
21712;DHT22;11017;53.552;9.910;2023-05-10T15:26:31;18.50;99.90
21712;DHT22;11017;53.552;9.910;2023-05-10T15:28:58;18.70;99.90
21712;DHT22;11017;53.552;9.910;2023-05-10T15:31:25;18.80;99.90
21712;DHT22;11017;53.552;9.910;2023-05-10T15:33:56;18.70;99.90
21712;DHT22;11017;53.552;9.910;2023-05-10T15:36:23;18.40;99.90
21712;DHT22;11017;53.552;9.910;2023-05-10T15:38:53;18.30;99.90
21712;DHT22;11017;53.552;9.910;2023-05-10T15:41:20;18.30;99.90